createdAt,value
2022-08-29T00:00:01.571Z,23.24
2022-08-29T00:02:01.617Z,23.23
2022-08-29T00:04:01.632Z,23.31
2022-08-29T00:06:01.465Z,23.23
2022-08-29T00:08:01.516Z,23.24
2022-08-29T00:10:01.586Z,23.25
2022-08-29T00:12:01.454Z,23.22
2022-08-29T00:14:01.564Z,23.25
2022-08-29T00:16:01.584Z,23.24
2022-08-29T00:18:01.416Z,23.20
2022-08-29T00:20:01.520Z,23.17
2022-08-29T00:22:01.520Z,23.25
2022-08-29T00:24:01.587Z,23.20
2022-08-29T00:26:01.445Z,22.95
2022-08-29T00:28:01.572Z,22.98
2022-08-29T00:30:01.624Z,22.96
2022-08-29T00:32:01.567Z,22.91
2022-08-29T00:34:01.552Z,22.96
2022-08-29T00:36:01.640Z,22.79
2022-08-29T00:38:01.580Z,22.95
2022-08-29T00:40:01.579Z,22.95
2022-08-29T00:42:01.611Z,23.15
2022-08-29T00:44:01.589Z,23.24
2022-08-29T00:46:01.566Z,23.25
2022-08-29T00:48:01.620Z,23.09
2022-08-29T00:50:01.611Z,23.13
2022-08-29T00:52:01.612Z,23.12
2022-08-29T00:54:01.624Z,23.12
2022-08-29T00:56:01.553Z,23.16
2022-08-29T00:58:01.645Z,23.11
2022-08-29T01:00:01.637Z,23.13
2022-08-29T01:02:01.664Z,23.13
2022-08-29T01:04:01.629Z,23.13
2022-08-29T01:06:01.643Z,23.09
2022-08-29T01:08:01.675Z,23.10
2022-08-29T01:10:01.637Z,23.08
2022-08-29T01:12:01.659Z,23.11
2022-08-29T01:14:01.628Z,23.10
2022-08-29T01:16:01.739Z,22.85
2022-08-29T01:18:01.609Z,22.82
2022-08-29T01:20:01.670Z,22.83
2022-08-29T01:22:01.590Z,22.79
2022-08-29T01:24:01.698Z,22.79
2022-08-29T01:26:01.627Z,22.79
2022-08-29T01:28:01.676Z,22.83
2022-08-29T01:30:01.641Z,22.96
2022-08-29T01:32:01.720Z,23.00
2022-08-29T01:34:01.687Z,22.96
2022-08-29T01:36:01.645Z,23.12
2022-08-29T01:38:01.705Z,23.00
2022-08-29T01:40:01.661Z,23.08
2022-08-29T01:42:01.645Z,23.03
2022-08-29T01:44:01.639Z,23.01
2022-08-29T01:46:01.654Z,22.99
2022-08-29T01:48:03.540Z,23.05
2022-08-29T01:50:01.726Z,23.00
2022-08-29T01:52:02.145Z,23.11
2022-08-29T01:54:01.727Z,23.06
2022-08-29T01:56:01.702Z,22.97
2022-08-29T01:58:01.727Z,23.03
2022-08-29T02:00:01.623Z,22.98
2022-08-29T02:02:01.793Z,23.04
2022-08-29T02:04:01.695Z,23.09
2022-08-29T02:06:01.700Z,22.78
2022-08-29T02:08:01.737Z,22.72
2022-08-29T02:10:01.666Z,22.67
2022-08-29T02:12:01.715Z,22.64
2022-08-29T02:14:01.687Z,22.68
2022-08-29T02:16:01.756Z,22.73
2022-08-29T02:18:01.606Z,22.72
2022-08-29T02:20:01.678Z,22.91
2022-08-29T02:22:01.775Z,22.98
2022-08-29T02:24:15.952Z,22.95
2022-08-29T02:26:01.695Z,22.95
2022-08-29T02:28:01.729Z,22.99
2022-08-29T02:30:01.737Z,22.96
2022-08-29T02:32:01.691Z,22.98
2022-08-29T02:34:01.729Z,22.92
2022-08-29T02:36:01.694Z,23.01
2022-08-29T02:38:01.637Z,22.88
2022-08-29T02:40:01.805Z,22.97
2022-08-29T02:42:01.815Z,22.95
2022-08-29T02:44:01.726Z,22.94
2022-08-29T02:46:01.676Z,22.92
2022-08-29T02:48:01.674Z,22.92
2022-08-29T02:50:01.656Z,22.84
2022-08-29T02:52:01.653Z,22.88
2022-08-29T02:54:01.696Z,22.88
2022-08-29T02:56:01.611Z,22.70
2022-08-29T02:58:01.623Z,22.66
2022-08-29T03:00:01.717Z,22.59
2022-08-29T03:02:01.764Z,22.68
2022-08-29T03:04:01.754Z,22.58
2022-08-29T03:06:01.767Z,22.58
2022-08-29T03:08:01.813Z,22.56
2022-08-29T03:10:01.694Z,22.64
2022-08-29T03:12:01.792Z,22.87
2022-08-29T03:14:01.817Z,22.95
2022-08-29T03:16:01.854Z,22.95
2022-08-29T03:18:01.675Z,22.90
2022-08-29T03:20:01.782Z,22.87
2022-08-29T03:22:01.677Z,22.82
2022-08-29T03:24:01.815Z,22.86
2022-08-29T03:26:01.810Z,22.84
2022-08-29T03:28:01.805Z,22.92
2022-08-29T03:30:01.724Z,22.87
2022-08-29T03:32:01.686Z,22.96
2022-08-29T03:34:01.824Z,22.84
2022-08-29T03:36:01.700Z,22.87
2022-08-29T03:38:01.853Z,22.82
2022-08-29T03:40:01.707Z,22.87
2022-08-29T03:42:01.807Z,22.82
2022-08-29T03:44:01.707Z,22.84
2022-08-29T03:46:01.849Z,22.56
2022-08-29T03:48:01.842Z,22.56
2022-08-29T03:50:01.755Z,22.60
2022-08-29T03:52:01.887Z,22.50
2022-08-29T03:54:01.791Z,22.65
2022-08-29T03:56:01.676Z,22.56
2022-08-29T03:58:01.751Z,22.71
2022-08-29T04:00:01.831Z,22.85
2022-08-29T04:02:01.827Z,22.59
2022-08-29T04:04:01.811Z,22.51
2022-08-29T04:06:01.767Z,22.49
2022-08-29T04:08:01.719Z,22.46
2022-08-29T04:10:01.776Z,22.49
2022-08-29T04:12:01.869Z,22.52
2022-08-29T04:14:01.923Z,22.48
2022-08-29T04:16:01.883Z,22.64
2022-08-29T04:18:01.803Z,22.52
2022-08-29T04:20:01.896Z,22.45
2022-08-29T04:22:01.815Z,22.46
2022-08-29T04:24:01.848Z,22.41
2022-08-29T04:26:19.143Z,22.52
2022-08-29T04:28:01.896Z,22.44
2022-08-29T04:30:01.786Z,22.46
2022-08-29T04:32:01.737Z,22.76
2022-08-29T04:34:01.863Z,22.40
2022-08-29T04:36:01.906Z,22.45
2022-08-29T04:38:01.851Z,22.46
2022-08-29T04:40:01.777Z,22.42
2022-08-29T04:42:01.943Z,22.41
2022-08-29T04:44:01.820Z,22.46
2022-08-29T04:46:01.880Z,22.45
2022-08-29T04:48:14.003Z,22.49
2022-08-29T04:50:01.878Z,22.77
2022-08-29T04:52:01.893Z,22.68
2022-08-29T04:54:01.902Z,22.66
2022-08-29T04:56:01.884Z,22.70
2022-08-29T04:58:01.732Z,22.69
2022-08-29T05:00:01.909Z,22.72
2022-08-29T05:02:01.973Z,22.77
2022-08-29T05:04:01.937Z,22.78
2022-08-29T05:06:01.841Z,22.69
2022-08-29T05:08:01.799Z,22.70
2022-08-29T05:10:01.918Z,22.81
2022-08-29T05:12:01.812Z,22.76
2022-08-29T05:14:01.879Z,22.69
2022-08-29T05:16:01.979Z,22.71
2022-08-29T05:18:01.933Z,22.77
2022-08-29T05:20:01.919Z,22.70
2022-08-29T05:22:01.930Z,22.68
2022-08-29T05:24:01.926Z,22.53
2022-08-29T05:26:01.849Z,22.40
2022-08-29T05:28:01.968Z,22.45
2022-08-29T05:30:01.976Z,22.46
2022-08-29T05:32:01.878Z,22.47
2022-08-29T05:34:01.800Z,22.40
2022-08-29T05:36:01.950Z,22.45
2022-08-29T05:38:05.805Z,22.64
2022-08-29T05:40:02.067Z,22.69
2022-08-29T05:42:01.985Z,22.72
2022-08-29T05:44:01.889Z,22.80
2022-08-29T05:46:01.958Z,22.76
2022-08-29T05:48:01.944Z,22.77
2022-08-29T05:50:01.947Z,22.79
2022-08-29T05:52:01.968Z,22.79
2022-08-29T05:54:01.856Z,22.78
2022-08-29T05:56:01.871Z,22.83
2022-08-29T05:58:01.973Z,22.82
2022-08-29T06:00:01.953Z,22.80
2022-08-29T06:02:01.888Z,22.87
2022-08-29T06:04:02.061Z,22.91
2022-08-29T06:06:01.999Z,22.87
2022-08-29T06:08:01.940Z,22.90
2022-08-29T06:10:04.026Z,22.99
2022-08-29T06:12:02.200Z,22.96
2022-08-29T06:14:02.030Z,22.56
2022-08-29T06:16:01.915Z,22.46
2022-08-29T06:18:01.835Z,22.40
2022-08-29T06:20:01.837Z,22.46
2022-08-29T06:22:02.035Z,22.48
2022-08-29T06:24:01.995Z,22.52
2022-08-29T06:26:01.920Z,22.56
2022-08-29T06:28:01.883Z,22.77
2022-08-29T06:30:02.209Z,23.02
2022-08-29T06:32:02.017Z,23.13
2022-08-29T06:34:01.943Z,23.25
2022-08-29T06:36:01.992Z,23.36
2022-08-29T06:38:01.981Z,23.54
2022-08-29T06:40:02.069Z,23.53
2022-08-29T06:42:01.956Z,23.76
2022-08-29T06:44:01.986Z,23.70
2022-08-29T06:46:02.158Z,23.73
2022-08-29T06:48:02.078Z,23.81
2022-08-29T06:50:02.019Z,23.89
2022-08-29T06:52:02.126Z,23.83
2022-08-29T06:54:02.214Z,23.91
2022-08-29T06:56:02.074Z,23.93
2022-08-29T06:58:02.083Z,23.96
2022-08-29T07:00:02.052Z,24.02
2022-08-29T07:02:02.025Z,23.98
2022-08-29T07:04:02.077Z,23.56
2022-08-29T07:06:02.025Z,23.57
2022-08-29T07:08:01.900Z,23.43
2022-08-29T07:10:02.053Z,23.61
2022-08-29T07:12:02.065Z,23.65
2022-08-29T07:14:02.054Z,23.53
2022-08-29T07:16:02.089Z,23.53
2022-08-29T07:18:01.921Z,23.96
2022-08-29T07:20:02.102Z,24.19
2022-08-29T07:22:01.965Z,24.22
2022-08-29T07:24:02.022Z,24.32
2022-08-29T07:26:02.093Z,24.35
2022-08-29T07:28:02.072Z,24.38
2022-08-29T07:30:02.080Z,24.51
2022-08-29T07:32:02.136Z,24.47
2022-08-29T07:34:03.169Z,24.54
2022-08-29T07:36:01.961Z,24.58
2022-08-29T07:38:02.065Z,24.62
2022-08-29T07:40:02.018Z,24.66
2022-08-29T07:42:02.076Z,24.69
2022-08-29T07:44:01.970Z,24.66
2022-08-29T07:46:02.043Z,24.75
2022-08-29T07:48:01.928Z,24.68
2022-08-29T07:50:02.114Z,24.75
2022-08-29T07:52:02.151Z,24.71
2022-08-29T07:54:01.937Z,24.50
2022-08-29T07:56:02.147Z,24.59
2022-08-29T07:58:02.130Z,24.66
2022-08-29T08:00:02.005Z,24.66
2022-08-29T08:02:02.251Z,24.55
2022-08-29T08:04:02.140Z,24.76
2022-08-29T08:06:07.015Z,24.76
2022-08-29T08:08:05.223Z,25.08
2022-08-29T08:10:02.171Z,25.33
2022-08-29T08:12:05.071Z,25.28
2022-08-29T08:14:02.112Z,25.28
2022-08-29T08:16:02.117Z,25.23
2022-08-29T08:18:02.163Z,25.30
2022-08-29T08:20:02.124Z,25.23
2022-08-29T08:22:02.099Z,25.25
2022-08-29T08:24:02.164Z,25.33
2022-08-29T08:26:02.001Z,25.33
2022-08-29T08:28:01.978Z,25.44
2022-08-29T08:30:02.172Z,25.29
2022-08-29T08:32:02.030Z,25.55
2022-08-29T08:34:02.741Z,25.54
2022-08-29T08:36:02.147Z,25.80
2022-08-29T08:38:01.992Z,25.48
2022-08-29T08:40:02.209Z,25.19
2022-08-29T08:42:02.166Z,25.80
2022-08-29T08:44:02.177Z,25.56
2022-08-29T08:46:02.375Z,25.49
2022-08-29T08:48:02.188Z,25.54
2022-08-29T08:50:02.033Z,25.81
2022-08-29T08:52:02.028Z,25.60
2022-08-29T08:54:02.144Z,25.79
2022-08-29T08:56:02.125Z,25.64
2022-08-29T08:58:02.158Z,26.33
2022-08-29T09:00:02.021Z,25.80
2022-08-29T09:02:07.226Z,26.16
2022-08-29T09:04:02.020Z,26.21
2022-08-29T09:06:02.086Z,26.38
2022-08-29T09:08:02.239Z,26.64
2022-08-29T09:10:02.142Z,26.45
2022-08-29T09:12:02.195Z,25.37
2022-08-29T09:14:02.100Z,26.35
2022-08-29T09:16:02.223Z,26.34
2022-08-29T09:18:02.192Z,26.71
2022-08-29T09:20:02.142Z,26.32
2022-08-29T09:22:02.074Z,26.99
2022-08-29T09:24:02.086Z,27.20
2022-08-29T09:26:02.159Z,27.13
2022-08-29T09:28:02.186Z,25.23
2022-08-29T09:30:02.208Z,26.99
2022-08-29T09:32:02.292Z,25.49
2022-08-29T09:34:02.265Z,27.24
2022-08-29T09:36:02.277Z,26.53
2022-08-29T09:38:02.166Z,26.28
2022-08-29T09:40:02.291Z,26.42
2022-08-29T09:42:02.236Z,26.71
2022-08-29T09:44:02.067Z,27.24
2022-08-29T09:46:02.152Z,26.82
2022-08-29T09:48:02.147Z,25.29
2022-08-29T09:50:02.066Z,27.22
2022-08-29T09:52:02.234Z,25.32
2022-08-29T09:54:02.235Z,25.51
2022-08-29T09:56:02.245Z,27.33
2022-08-29T09:58:02.142Z,27.51
2022-08-29T10:00:02.188Z,27.34
2022-08-29T10:02:02.309Z,27.22
2022-08-29T10:04:02.091Z,26.14
2022-08-29T10:06:02.131Z,27.44
2022-08-29T10:08:02.206Z,25.32
2022-08-29T10:10:02.157Z,25.51
2022-08-29T10:12:02.259Z,25.49
2022-08-29T10:14:02.240Z,27.28
2022-08-29T10:16:02.216Z,27.39
2022-08-29T10:18:02.279Z,27.39
2022-08-29T10:20:02.237Z,27.36
2022-08-29T10:22:02.220Z,25.34
2022-08-29T10:24:02.322Z,27.23
2022-08-29T10:26:02.252Z,27.38
2022-08-29T10:28:02.207Z,27.47
2022-08-29T10:30:02.239Z,27.22
2022-08-29T10:32:02.337Z,27.24
2022-08-29T10:34:02.287Z,26.31
2022-08-29T10:36:02.225Z,27.31
2022-08-29T10:38:02.237Z,25.50
2022-08-29T10:40:02.425Z,25.50
2022-08-29T10:42:02.292Z,25.58
2022-08-29T10:44:02.160Z,25.49
2022-08-29T10:46:02.225Z,27.58
2022-08-29T10:48:02.216Z,27.42
2022-08-29T10:50:02.310Z,27.44
2022-08-29T10:52:02.194Z,25.52
2022-08-29T10:54:02.272Z,25.55
2022-08-29T10:56:06.629Z,25.75
2022-08-29T10:58:02.359Z,25.61
2022-08-29T11:00:02.317Z,25.79
2022-08-29T11:02:02.311Z,27.63
2022-08-29T11:04:02.307Z,25.99
2022-08-29T11:06:02.308Z,27.36
2022-08-29T11:08:02.339Z,27.51
2022-08-29T11:10:02.392Z,25.60
2022-08-29T11:12:02.288Z,27.50
2022-08-29T11:14:05.605Z,27.59
2022-08-29T11:16:02.336Z,27.63
2022-08-29T11:18:02.362Z,27.51
2022-08-29T11:20:02.384Z,27.31
2022-08-29T11:22:02.343Z,27.26
2022-08-29T11:24:02.244Z,27.31
2022-08-29T11:26:02.352Z,27.22
2022-08-29T11:28:02.330Z,25.46
2022-08-29T11:30:02.195Z,25.49
2022-08-29T11:32:02.247Z,25.56
2022-08-29T11:34:02.355Z,25.51
2022-08-29T11:36:05.021Z,27.36
2022-08-29T11:38:02.315Z,27.50
2022-08-29T11:40:02.443Z,27.35
2022-08-29T11:42:02.491Z,27.30
2022-08-29T11:44:02.394Z,27.55
2022-08-29T11:46:02.318Z,27.59
2022-08-29T11:48:02.365Z,25.61
2022-08-29T11:50:02.339Z,25.63
2022-08-29T11:52:02.412Z,25.60
2022-08-29T11:54:02.368Z,27.40
2022-08-29T11:56:02.271Z,26.93
2022-08-29T11:58:05.667Z,27.50
2022-08-29T12:00:02.371Z,26.89
2022-08-29T12:02:02.463Z,27.46
2022-08-29T12:04:02.402Z,26.88
2022-08-29T12:06:02.262Z,27.62
2022-08-29T12:08:14.451Z,27.22
2022-08-29T12:10:02.499Z,27.69
2022-08-29T12:12:02.404Z,27.58
2022-08-29T12:14:04.587Z,27.70
2022-08-29T12:16:02.304Z,26.87
2022-08-29T12:18:03.703Z,27.59
2022-08-29T12:20:02.415Z,27.31
2022-08-29T12:22:02.341Z,25.89
2022-08-29T12:24:02.385Z,25.57
2022-08-29T12:26:22.421Z,25.53
2022-08-29T12:28:02.305Z,25.72
2022-08-29T12:30:02.431Z,25.97
2022-08-29T12:32:18.697Z,26.07
2022-08-29T12:34:02.435Z,26.11
2022-08-29T12:36:02.437Z,26.23
2022-08-29T12:38:03.223Z,26.10
2022-08-29T12:40:02.396Z,26.14
2022-08-29T12:42:02.368Z,26.23
2022-08-29T12:44:04.008Z,26.18
2022-08-29T12:46:02.423Z,27.58
2022-08-29T12:48:02.338Z,27.51
2022-08-29T12:50:02.403Z,27.62
2022-08-29T12:52:02.424Z,27.78
2022-08-29T12:54:02.466Z,27.53
2022-08-29T12:56:02.430Z,26.61
2022-08-29T12:58:02.381Z,27.65
2022-08-29T13:00:02.457Z,25.44
2022-08-29T13:02:02.342Z,27.16
2022-08-29T13:04:02.337Z,27.40
2022-08-29T13:06:02.449Z,27.45
2022-08-29T13:08:02.473Z,27.73
2022-08-29T13:10:02.459Z,27.51
2022-08-29T13:12:02.453Z,26.11
2022-08-29T13:14:02.440Z,26.03
2022-08-29T13:16:02.528Z,25.85
2022-08-29T13:18:02.480Z,25.80
2022-08-29T13:20:02.475Z,25.92
2022-08-29T13:22:02.525Z,26.03
2022-08-29T13:24:02.370Z,25.93
2022-08-29T13:26:02.489Z,26.10
2022-08-29T13:28:02.519Z,27.46
2022-08-29T13:30:02.456Z,25.44
2022-08-29T13:32:02.521Z,26.85
2022-08-29T13:34:02.486Z,25.85
2022-08-29T13:36:02.382Z,25.74
2022-08-29T13:38:02.460Z,26.11
2022-08-29T13:40:02.498Z,25.94
2022-08-29T13:42:02.482Z,27.66
2022-08-29T13:44:02.416Z,27.46
2022-08-29T13:46:02.592Z,27.65
2022-08-29T13:48:02.506Z,27.51
2022-08-29T13:50:02.467Z,27.47
2022-08-29T13:52:02.403Z,27.53
2022-08-29T13:54:02.329Z,27.53
2022-08-29T13:56:02.453Z,26.85
2022-08-29T13:58:02.576Z,27.48
2022-08-29T14:00:02.516Z,25.52
2022-08-29T14:02:10.673Z,25.77
2022-08-29T14:04:20.930Z,26.04
2022-08-29T14:06:02.535Z,25.75
2022-08-29T14:08:02.391Z,25.94
2022-08-29T14:10:02.566Z,25.51
2022-08-29T14:12:02.527Z,25.99
2022-08-29T14:14:02.498Z,27.66
2022-08-29T14:16:02.526Z,26.65
2022-08-29T14:18:02.551Z,26.04
2022-08-29T14:20:02.428Z,25.91
2022-08-29T14:22:02.620Z,25.99
2022-08-29T14:24:02.450Z,26.00
2022-08-29T14:26:02.585Z,25.60
2022-08-29T14:28:02.529Z,25.65
2022-08-29T14:30:02.561Z,25.75
2022-08-29T14:32:02.816Z,24.66
2022-08-29T14:34:02.549Z,24.66
2022-08-29T14:36:02.480Z,24.66
2022-08-29T14:38:02.578Z,24.53
2022-08-29T14:40:02.592Z,24.56
2022-08-29T14:42:02.579Z,24.82
2022-08-29T14:44:02.522Z,24.61
2022-08-29T14:46:02.607Z,25.12
2022-08-29T14:48:02.435Z,25.52
2022-08-29T14:50:02.586Z,25.52
2022-08-29T14:52:02.524Z,25.89
2022-08-29T14:54:02.588Z,25.84
2022-08-29T14:56:02.488Z,25.79
2022-08-29T14:58:02.457Z,25.44
2022-08-29T15:00:02.587Z,25.53
2022-08-29T15:02:02.577Z,25.86
2022-08-29T15:04:02.631Z,25.99
2022-08-29T15:06:02.581Z,25.74
2022-08-29T15:08:06.385Z,25.51
2022-08-29T15:10:02.575Z,25.58
2022-08-29T15:12:02.579Z,25.72
2022-08-29T15:14:04.339Z,27.48
2022-08-29T15:16:02.564Z,27.49
2022-08-29T15:18:02.594Z,25.95
2022-08-29T15:22:02.580Z,27.49
2022-08-29T15:24:02.627Z,27.33
2022-08-29T15:26:02.606Z,27.56
2022-08-29T15:28:02.626Z,27.41
2022-08-29T15:30:02.652Z,27.51
2022-08-29T15:32:02.609Z,25.65
2022-08-29T15:34:02.676Z,27.41
2022-08-29T15:36:02.537Z,26.69
2022-08-29T15:38:02.597Z,26.05
2022-08-29T15:40:02.540Z,25.93
2022-08-29T15:42:02.642Z,25.96
2022-08-29T15:44:02.576Z,25.86
2022-08-29T15:46:02.709Z,25.84
2022-08-29T15:48:02.670Z,25.83
2022-08-29T15:50:02.778Z,25.75
2022-08-29T15:52:02.690Z,27.54
2022-08-29T15:54:02.634Z,27.39
2022-08-29T15:56:02.601Z,26.06
2022-08-29T15:58:02.661Z,25.83
2022-08-29T16:00:02.728Z,25.46
2022-08-29T16:02:02.691Z,25.63
2022-08-29T16:04:02.594Z,25.92
2022-08-29T16:06:02.515Z,26.01
2022-08-29T16:08:02.680Z,25.79
2022-08-29T16:10:09.249Z,25.83
2022-08-29T16:12:02.667Z,24.59
2022-08-29T16:14:40.937Z,24.39
2022-08-29T16:16:02.835Z,24.41
2022-08-29T16:18:02.661Z,24.54
2022-08-29T16:20:02.684Z,24.46
2022-08-29T16:22:02.661Z,24.22
2022-08-29T16:24:02.628Z,24.20
2022-08-29T16:26:02.553Z,24.48
2022-08-29T16:28:03.500Z,24.65
2022-08-29T16:30:02.668Z,24.74
2022-08-29T16:32:02.677Z,24.82
2022-08-29T16:34:02.572Z,24.79
2022-08-29T16:36:02.723Z,24.73
2022-08-29T16:38:12.970Z,24.69
2022-08-29T16:40:02.802Z,24.80
2022-08-29T16:42:02.658Z,24.74
2022-08-29T16:44:02.720Z,24.44
2022-08-29T16:46:02.748Z,24.28
2022-08-29T16:48:02.700Z,24.34
2022-08-29T16:50:03.455Z,24.48
2022-08-29T16:52:02.726Z,24.64
2022-08-29T16:54:02.658Z,24.62
2022-08-29T16:56:02.616Z,24.55
2022-08-29T16:58:02.727Z,24.62
2022-08-29T17:00:02.762Z,24.53
2022-08-29T17:02:02.869Z,24.23
2022-08-29T17:04:02.644Z,24.23
2022-08-29T17:06:02.788Z,24.09
2022-08-29T17:08:02.677Z,24.07
2022-08-29T17:10:02.724Z,24.16
2022-08-29T17:12:03.610Z,24.19
2022-08-29T17:14:02.722Z,24.18
2022-08-29T17:16:02.723Z,24.11
2022-08-29T17:18:02.729Z,24.48
2022-08-29T17:20:02.738Z,24.43
2022-08-29T17:22:02.762Z,24.40
2022-08-29T17:24:02.649Z,24.43
2022-08-29T17:26:02.759Z,24.44
2022-08-29T17:28:17.157Z,24.38
2022-08-29T17:30:02.690Z,24.37
2022-08-29T17:32:02.751Z,24.48
2022-08-29T17:34:02.762Z,24.30
2022-08-29T17:36:02.647Z,24.41
2022-08-29T17:38:02.744Z,24.35
2022-08-29T17:40:02.781Z,24.34
2022-08-29T17:42:02.795Z,24.33
2022-08-29T17:44:02.780Z,24.38
2022-08-29T17:46:02.868Z,24.33
2022-08-29T17:48:02.763Z,24.38
2022-08-29T17:50:02.798Z,24.39
2022-08-29T17:52:02.774Z,24.05
2022-08-29T17:54:02.771Z,23.88
2022-08-29T17:56:02.815Z,24.07
2022-08-29T17:58:02.652Z,23.96
2022-08-29T18:00:02.816Z,24.07
2022-08-29T18:02:02.916Z,23.95
2022-08-29T18:04:02.789Z,23.94
2022-08-29T18:06:02.726Z,24.07
2022-08-29T18:08:02.790Z,24.44
2022-08-29T18:10:02.825Z,24.21
2022-08-29T18:12:02.789Z,24.35
2022-08-29T18:14:02.794Z,24.23
2022-08-29T18:16:02.810Z,25.06
2022-08-29T18:18:02.823Z,24.22
2022-08-29T18:20:02.788Z,24.12
2022-08-29T18:22:02.798Z,24.20
2022-08-29T18:24:02.813Z,24.21
2022-08-29T18:26:02.803Z,24.16
2022-08-29T18:28:02.724Z,24.20
2022-08-29T18:30:06.397Z,24.22
2022-08-29T18:32:03.536Z,24.11
2022-08-29T18:36:02.726Z,24.13
2022-08-29T18:38:02.810Z,24.16
2022-08-29T18:40:02.940Z,24.20
2022-08-29T18:42:02.768Z,23.93
2022-08-29T18:44:02.764Z,23.81
2022-08-29T18:46:02.881Z,23.87
2022-08-29T18:48:02.906Z,23.84
2022-08-29T18:50:02.783Z,23.87
2022-08-29T18:52:02.833Z,23.81
2022-08-29T18:54:02.894Z,23.88
2022-08-29T18:56:02.832Z,23.86
2022-08-29T18:58:02.852Z,24.04
2022-08-29T19:00:02.832Z,24.04
2022-08-29T19:02:03.103Z,24.01
2022-08-29T19:04:02.856Z,24.07
2022-08-29T19:06:02.849Z,24.05
2022-08-29T19:08:02.883Z,24.02
2022-08-29T19:10:02.759Z,24.01
2022-08-29T19:12:02.888Z,24.07
2022-08-29T19:14:02.892Z,23.97
2022-08-29T19:16:02.931Z,24.01
2022-08-29T19:18:02.851Z,24.02
2022-08-29T19:20:02.908Z,24.00
2022-08-29T19:22:02.922Z,23.96
2022-08-29T19:24:02.877Z,23.90
2022-08-29T19:26:02.889Z,23.94
2022-08-29T19:28:02.868Z,23.96
2022-08-29T19:30:05.095Z,23.91
2022-08-29T19:32:02.799Z,23.75
2022-08-29T19:34:02.838Z,23.73
2022-08-29T19:36:02.889Z,23.70
2022-08-29T19:38:02.811Z,23.77
2022-08-29T19:40:02.790Z,23.68
2022-08-29T19:42:02.932Z,23.65
2022-08-29T19:44:02.933Z,23.67
2022-08-29T19:46:02.816Z,23.95
2022-08-29T19:48:02.938Z,23.96
2022-08-29T19:50:02.891Z,23.97
2022-08-29T19:52:02.814Z,23.91
2022-08-29T19:54:03.017Z,23.90
2022-08-29T19:56:02.926Z,23.90
2022-08-29T19:58:02.836Z,23.91
2022-08-29T20:00:02.917Z,23.95
2022-08-29T20:02:02.966Z,23.88
2022-08-29T20:04:02.905Z,23.86
2022-08-29T20:06:02.886Z,23.93
2022-08-29T20:08:02.969Z,23.95
2022-08-29T20:10:02.941Z,23.89
2022-08-29T20:12:02.943Z,23.88
2022-08-29T20:14:02.891Z,23.84
2022-08-29T20:16:02.962Z,23.92
2022-08-29T20:18:02.852Z,23.85
2022-08-29T20:20:02.970Z,23.90
2022-08-29T20:22:02.958Z,23.68
2022-08-29T20:24:02.914Z,23.65
2022-08-29T20:26:02.920Z,23.53
2022-08-29T20:28:03.024Z,23.62
2022-08-29T20:30:02.815Z,23.50
2022-08-29T20:32:02.793Z,23.61
2022-08-29T20:34:02.874Z,23.53
2022-08-29T20:36:02.928Z,23.53
2022-08-29T20:38:03.094Z,23.81
2022-08-29T20:40:02.936Z,23.75
2022-08-29T20:42:02.863Z,23.77
2022-08-29T20:44:02.856Z,23.75
2022-08-29T20:46:02.995Z,23.79
2022-08-29T20:48:03.126Z,23.79
2022-08-29T20:50:02.977Z,23.73
2022-08-29T20:52:03.016Z,23.70
2022-08-29T20:54:02.920Z,23.81
2022-08-29T20:56:02.854Z,23.70
2022-08-29T20:58:03.152Z,23.73
2022-08-29T21:00:02.954Z,23.75
2022-08-29T21:02:02.933Z,23.76
2022-08-29T21:04:02.968Z,23.76
2022-08-29T21:06:03.014Z,23.73
2022-08-29T21:08:03.079Z,23.77
2022-08-29T21:10:02.989Z,23.69
2022-08-29T21:12:03.005Z,23.42
2022-08-29T21:14:02.958Z,23.34
2022-08-29T21:16:03.042Z,23.38
2022-08-29T21:18:03.198Z,23.39
2022-08-29T21:20:02.984Z,23.38
2022-08-29T21:22:02.951Z,23.34
2022-08-29T21:24:02.909Z,23.34
2022-08-29T21:26:02.975Z,23.36
2022-08-29T21:28:03.000Z,23.55
2022-08-29T21:30:03.013Z,23.59
2022-08-29T21:32:02.994Z,23.59
2022-08-29T21:34:06.828Z,23.63
2022-08-29T21:36:02.923Z,23.62
2022-08-29T21:38:02.963Z,23.59
2022-08-29T21:40:03.075Z,23.56
2022-08-29T21:42:03.196Z,23.56
2022-08-29T21:44:02.932Z,23.62
2022-08-29T21:46:02.953Z,23.65
2022-08-29T21:48:03.076Z,23.53
2022-08-29T21:50:03.043Z,23.56
2022-08-29T21:52:03.045Z,23.65
2022-08-29T21:54:03.083Z,23.59
2022-08-29T21:56:02.933Z,23.54
2022-08-29T21:58:02.958Z,23.54
2022-08-29T22:00:03.072Z,23.53
2022-08-29T22:02:03.129Z,23.27
2022-08-29T22:04:03.079Z,23.02
2022-08-29T22:06:03.106Z,23.38
2022-08-29T22:08:02.891Z,23.25
2022-08-29T22:10:03.087Z,23.33
2022-08-29T22:12:02.901Z,23.31
2022-08-29T22:14:03.133Z,23.31
2022-08-29T22:16:03.124Z,23.20
2022-08-29T22:18:02.899Z,23.43
2022-08-29T22:20:03.076Z,23.40
2022-08-29T22:22:03.083Z,23.42
2022-08-29T22:24:02.974Z,23.58
2022-08-29T22:26:03.075Z,23.50
2022-08-29T22:28:02.999Z,23.51
2022-08-29T22:30:03.036Z,23.48
2022-08-29T22:32:03.088Z,23.53
2022-08-29T22:34:03.055Z,23.45
2022-08-29T22:36:03.082Z,23.43
2022-08-29T22:38:03.071Z,23.44
2022-08-29T22:40:03.146Z,23.54
2022-08-29T22:42:03.112Z,23.51
2022-08-29T22:44:42.352Z,23.52
2022-08-29T22:46:03.179Z,23.45
2022-08-29T22:48:03.046Z,23.53
2022-08-29T22:50:03.111Z,23.49
2022-08-29T22:52:03.119Z,23.27
2022-08-29T22:54:03.018Z,23.15
2022-08-29T22:56:02.948Z,23.22
2022-08-29T22:58:03.118Z,23.22
2022-08-29T23:00:03.021Z,23.25
2022-08-29T23:02:03.230Z,23.22
2022-08-29T23:04:03.051Z,23.10
2022-08-29T23:06:03.155Z,23.26
2022-08-29T23:08:03.119Z,23.29
2022-08-29T23:10:03.032Z,23.36
2022-08-29T23:12:03.115Z,23.43
2022-08-29T23:14:02.985Z,23.34
2022-08-29T23:16:03.179Z,23.41
2022-08-29T23:18:03.046Z,23.38
2022-08-29T23:20:03.113Z,23.42
2022-08-29T23:22:03.127Z,23.34
2022-08-29T23:24:03.137Z,23.39
2022-08-29T23:26:03.009Z,23.27
2022-08-29T23:28:03.161Z,23.42
2022-08-29T23:30:03.172Z,23.51
2022-08-29T23:32:03.123Z,23.41
2022-08-29T23:34:03.152Z,23.29
2022-08-29T23:36:03.155Z,23.34
2022-08-29T23:38:03.193Z,23.30
2022-08-29T23:40:03.227Z,23.33
2022-08-29T23:42:03.169Z,23.20
2022-08-29T23:44:03.096Z,23.11
2022-08-29T23:46:03.324Z,23.10
2022-08-29T23:48:03.173Z,23.04
2022-08-29T23:50:03.029Z,23.12
2022-08-29T23:52:03.120Z,23.03
2022-08-29T23:54:03.085Z,23.06
2022-08-29T23:56:03.160Z,23.11
2022-08-29T23:58:03.129Z,23.25
